createdAt,value
2023-01-07T00:01:09.608Z,6.87
2023-01-07T00:03:36.753Z,6.87
2023-01-07T00:06:05.248Z,6.90
2023-01-07T00:08:33.136Z,6.90
2023-01-07T00:11:07.198Z,6.91
2023-01-07T00:13:34.417Z,6.90
2023-01-07T00:16:02.237Z,6.87
2023-01-07T00:18:29.136Z,6.86
2023-01-07T00:20:59.784Z,6.85
2023-01-07T00:23:27.239Z,6.85
2023-01-07T00:25:59.668Z,6.91
2023-01-07T00:28:26.466Z,6.85
2023-01-07T00:30:53.179Z,6.83
2023-01-07T00:33:21.821Z,6.79
2023-01-07T00:35:48.559Z,6.80
2023-01-07T00:38:15.309Z,6.81
2023-01-07T00:40:41.967Z,6.79
2023-01-07T00:43:09.039Z,6.80
2023-01-07T00:45:36.925Z,6.81
2023-01-07T00:48:04.383Z,6.85
2023-01-07T00:50:32.557Z,6.88
2023-01-07T00:52:59.575Z,6.87
2023-01-07T00:55:26.807Z,6.89
2023-01-07T00:57:54.192Z,6.93
2023-01-07T01:00:21.692Z,6.94
2023-01-07T01:02:48.814Z,6.96
2023-01-07T01:05:15.557Z,6.97
2023-01-07T01:07:42.288Z,6.97
2023-01-07T01:10:10.202Z,6.97
2023-01-07T01:12:37.512Z,6.96
2023-01-07T01:15:08.481Z,6.95
2023-01-07T01:17:35.368Z,6.98
2023-01-07T01:20:02.509Z,6.99
2023-01-07T01:22:29.515Z,7.01
2023-01-07T01:24:56.302Z,6.99
2023-01-07T01:27:23.339Z,7.01
2023-01-07T01:29:50.172Z,7.01
2023-01-07T01:32:17.742Z,7.01
2023-01-07T01:34:45.749Z,6.97
2023-01-07T01:37:12.537Z,6.97
2023-01-07T01:39:39.357Z,6.98
2023-01-07T01:42:06.318Z,6.99
2023-01-07T01:44:38.018Z,6.98
2023-01-07T01:47:33.251Z,6.93
2023-01-07T01:50:04.604Z,6.92
2023-01-07T01:52:37.985Z,6.94
2023-01-07T01:55:06.870Z,6.93
2023-01-07T01:57:35.517Z,6.94
2023-01-07T02:00:02.864Z,6.95
2023-01-07T02:02:43.048Z,6.98
2023-01-07T02:05:10.102Z,7.02
2023-01-07T02:07:36.812Z,7.05
2023-01-07T02:10:11.969Z,6.85
2023-01-07T02:12:58.107Z,7.06
2023-01-07T02:15:29.707Z,7.05
2023-01-07T02:17:56.555Z,7.06
2023-01-07T02:20:23.233Z,7.06
2023-01-07T02:23:16.519Z,7.06
2023-01-07T02:25:43.335Z,7.03
2023-01-07T02:28:19.129Z,7.04
2023-01-07T02:30:45.886Z,7.06
2023-01-07T02:33:25.620Z,7.07
2023-01-07T02:35:55.242Z,7.07
2023-01-07T02:38:27.316Z,7.06
2023-01-07T02:41:13.701Z,7.06
2023-01-07T02:43:47.277Z,7.08
2023-01-07T02:46:14.054Z,7.10
2023-01-07T02:48:41.809Z,7.13
2023-01-07T02:51:08.655Z,7.11
2023-01-07T02:53:35.695Z,7.07
2023-01-07T02:56:05.514Z,7.01
2023-01-07T02:58:36.194Z,7.03
2023-01-07T03:01:21.549Z,7.07
2023-01-07T03:04:18.012Z,7.13
2023-01-07T03:06:56.852Z,7.12
2023-01-07T03:09:39.019Z,7.08
2023-01-07T03:12:09.698Z,7.10
2023-01-07T03:14:45.994Z,7.13
2023-01-07T03:17:15.757Z,7.14
2023-01-07T03:19:46.133Z,7.13
2023-01-07T03:22:15.539Z,7.12
2023-01-07T03:24:43.076Z,7.12
2023-01-07T03:27:09.911Z,7.11
2023-01-07T03:29:36.696Z,7.14
2023-01-07T03:32:19.599Z,7.10
2023-01-07T03:34:47.413Z,7.07
2023-01-07T03:37:20.314Z,7.07
2023-01-07T03:39:47.654Z,7.07
2023-01-07T03:42:33.863Z,7.10
2023-01-07T03:45:01.331Z,7.11
2023-01-07T03:47:30.802Z,7.07
2023-01-07T03:49:57.605Z,7.03
2023-01-07T03:52:24.431Z,7.06
2023-01-07T03:54:51.809Z,7.09
2023-01-07T03:57:18.605Z,7.06
2023-01-07T03:59:45.597Z,7.08
2023-01-07T04:02:12.382Z,7.10
2023-01-07T04:04:40.051Z,7.11
2023-01-07T04:07:07.323Z,7.09
2023-01-07T04:09:34.068Z,7.13
2023-01-07T04:12:00.816Z,7.17
2023-01-07T04:14:27.765Z,7.18
2023-01-07T04:16:54.539Z,7.22
2023-01-07T04:19:21.761Z,7.22
2023-01-07T04:21:48.473Z,7.24
2023-01-07T04:24:15.365Z,7.26
2023-01-07T04:26:42.702Z,7.23
2023-01-07T04:29:10.831Z,7.24
2023-01-07T04:31:37.680Z,7.25
2023-01-07T04:34:04.531Z,7.28
2023-01-07T04:36:31.277Z,7.30
2023-01-07T04:38:58.280Z,7.34
2023-01-07T04:41:25.635Z,7.36
2023-01-07T04:43:53.291Z,7.36
2023-01-07T04:46:20.041Z,7.38
2023-01-07T04:48:47.558Z,7.40
2023-01-07T04:51:14.659Z,7.44
2023-01-07T04:53:41.761Z,7.46
2023-01-07T04:56:08.630Z,7.46
2023-01-07T04:58:35.573Z,7.46
2023-01-07T05:01:06.024Z,7.45
2023-01-07T05:03:37.357Z,7.25
2023-01-07T05:06:05.647Z,7.44
2023-01-07T05:08:33.412Z,7.43
2023-01-07T05:11:02.251Z,7.45
2023-01-07T05:13:31.865Z,7.46
2023-01-07T05:16:00.402Z,7.46
2023-01-07T05:18:27.341Z,7.48
2023-01-07T05:20:54.346Z,7.48
2023-01-07T05:23:21.137Z,7.46
2023-01-07T05:25:49.277Z,7.47
2023-01-07T05:28:16.163Z,7.44
2023-01-07T05:30:42.934Z,7.45
2023-01-07T05:33:10.489Z,7.45
2023-01-07T05:35:37.757Z,7.46
2023-01-07T05:38:04.631Z,7.44
2023-01-07T05:40:31.968Z,7.43
2023-01-07T05:42:58.712Z,7.44
2023-01-07T05:45:27.131Z,7.43
2023-01-07T05:47:53.867Z,7.42
2023-01-07T05:50:20.634Z,7.38
2023-01-07T05:52:47.524Z,7.31
2023-01-07T05:55:14.293Z,7.24
2023-01-07T05:57:40.928Z,7.14
2023-01-07T06:00:10.352Z,7.05
2023-01-07T06:02:40.200Z,7.07
2023-01-07T06:05:07.251Z,7.07
2023-01-07T06:07:33.911Z,7.07
2023-01-07T06:10:02.801Z,7.04
2023-01-07T06:12:29.988Z,6.98
2023-01-07T06:14:56.731Z,6.95
2023-01-07T06:17:23.405Z,6.91
2023-01-07T06:19:50.125Z,6.90
2023-01-07T06:22:16.784Z,6.91
2023-01-07T06:24:43.542Z,6.93
2023-01-07T06:27:10.707Z,6.93
2023-01-07T06:29:37.410Z,6.94
2023-01-07T06:32:04.246Z,6.90
2023-01-07T06:34:30.958Z,6.93
2023-01-07T06:36:57.632Z,6.95
2023-01-07T06:39:24.487Z,6.93
2023-01-07T06:41:51.162Z,6.93
2023-01-07T06:44:17.925Z,6.96
2023-01-07T06:46:44.666Z,7.00
2023-01-07T06:49:11.574Z,7.02
2023-01-07T06:51:38.425Z,7.05
2023-01-07T06:54:05.267Z,7.09
2023-01-07T06:56:31.966Z,7.11
2023-01-07T06:58:58.651Z,7.13
2023-01-07T07:01:25.645Z,7.17
2023-01-07T07:03:52.589Z,7.21
2023-01-07T07:06:19.222Z,7.23
2023-01-07T07:08:46.088Z,7.20
2023-01-07T07:11:12.740Z,7.21
2023-01-07T07:13:39.517Z,7.22
2023-01-07T07:16:06.472Z,7.21
2023-01-07T07:18:33.222Z,7.24
2023-01-07T07:20:59.905Z,7.30
2023-01-07T07:23:26.799Z,7.32
2023-01-07T07:25:53.428Z,7.29
2023-01-07T07:28:20.221Z,7.27
2023-01-07T07:30:48.097Z,7.24
2023-01-07T07:33:15.726Z,7.22
2023-01-07T07:35:42.426Z,7.24
2023-01-07T07:38:09.450Z,7.27
2023-01-07T07:40:36.249Z,7.31
2023-01-07T07:43:10.930Z,7.30
2023-01-07T07:45:39.982Z,7.33
2023-01-07T07:48:08.065Z,7.38
2023-01-07T07:50:35.435Z,7.42
2023-01-07T07:53:02.165Z,7.46
2023-01-07T07:55:28.909Z,7.46
2023-01-07T07:57:56.428Z,7.45
2023-01-07T08:00:23.345Z,7.46
2023-01-07T08:02:50.212Z,7.46
2023-01-07T08:05:16.986Z,7.50
2023-01-07T08:07:43.757Z,7.53
2023-01-07T08:10:10.512Z,7.53
2023-01-07T08:12:38.320Z,7.52
2023-01-07T08:15:05.955Z,7.55
2023-01-07T08:17:32.705Z,7.57
2023-01-07T08:19:59.500Z,7.58
2023-01-07T08:22:26.226Z,7.62
2023-01-07T08:24:53.005Z,7.62
2023-01-07T08:27:19.741Z,7.59
2023-01-07T08:29:47.169Z,7.60
2023-01-07T08:32:15.650Z,7.64
2023-01-07T08:34:42.379Z,7.70
2023-01-07T08:37:09.139Z,7.73
2023-01-07T08:39:35.992Z,7.78
2023-01-07T08:42:02.729Z,7.81
2023-01-07T08:44:29.541Z,7.83
2023-01-07T08:46:56.287Z,7.88
2023-01-07T08:49:23.178Z,7.92
2023-01-07T08:51:50.009Z,7.94
2023-01-07T08:54:16.766Z,7.99
2023-01-07T08:56:43.521Z,8.01
2023-01-07T08:59:10.760Z,8.02
2023-01-07T09:01:37.638Z,8.02
2023-01-07T09:04:04.597Z,7.99
2023-01-07T09:06:31.313Z,8.01
2023-01-07T09:08:58.089Z,8.02
2023-01-07T09:11:24.827Z,8.02
2023-01-07T09:13:51.617Z,8.01
2023-01-07T09:16:18.351Z,8.03
2023-01-07T09:18:45.628Z,8.05
2023-01-07T09:21:12.374Z,8.09
2023-01-07T09:23:40.445Z,8.15
2023-01-07T09:26:07.410Z,8.18
2023-01-07T09:28:34.210Z,8.21
2023-01-07T09:31:00.967Z,8.24
2023-01-07T09:33:27.695Z,8.28
2023-01-07T09:35:54.370Z,8.33
2023-01-07T09:38:21.099Z,8.35
2023-01-07T09:40:48.022Z,8.40
2023-01-07T09:43:21.126Z,8.45
2023-01-07T09:45:50.340Z,8.50
2023-01-07T09:48:22.190Z,8.55
2023-01-07T09:51:07.038Z,8.59
2023-01-07T09:53:39.549Z,8.61
2023-01-07T09:56:12.487Z,8.65
2023-01-07T09:58:41.085Z,8.70
2023-01-07T10:01:10.830Z,8.74
2023-01-07T10:03:43.769Z,8.76
2023-01-07T10:06:46.045Z,8.77
2023-01-07T10:09:12.766Z,8.83
2023-01-07T10:12:05.730Z,8.90
2023-01-07T10:14:46.449Z,8.98
2023-01-07T10:17:26.582Z,9.06
2023-01-07T10:19:57.851Z,9.15
2023-01-07T10:22:56.685Z,9.21
2023-01-07T10:25:35.769Z,9.27
2023-01-07T10:28:08.144Z,9.32
2023-01-07T10:30:37.101Z,9.38
2023-01-07T10:33:32.828Z,9.47
2023-01-07T10:36:02.381Z,9.55
2023-01-07T10:38:30.245Z,9.60
2023-01-07T10:40:59.264Z,9.64
2023-01-07T10:43:53.000Z,9.70
2023-01-07T10:46:34.256Z,9.77
2023-01-07T10:49:19.761Z,9.84
2023-01-07T10:51:47.100Z,9.84
2023-01-07T10:54:32.922Z,9.89
2023-01-07T10:57:09.269Z,9.93
2023-01-07T10:59:36.621Z,9.99
2023-01-07T11:02:05.297Z,10.05
2023-01-07T11:04:33.158Z,10.11
2023-01-07T11:07:04.577Z,10.13
2023-01-07T11:09:33.929Z,10.15
2023-01-07T11:12:19.538Z,10.20
2023-01-07T11:14:46.972Z,10.23
2023-01-07T11:17:52.267Z,10.28
2023-01-07T11:20:37.464Z,10.39
2023-01-07T11:23:17.698Z,10.47
2023-01-07T11:25:44.391Z,10.58
2023-01-07T11:28:17.836Z,10.71
2023-01-07T11:30:44.567Z,10.89
2023-01-07T11:34:03.010Z,10.99
2023-01-07T11:36:38.274Z,11.03
2023-01-07T11:39:12.472Z,11.03
2023-01-07T11:41:50.795Z,11.04
2023-01-07T11:44:17.515Z,11.08
2023-01-07T11:46:45.319Z,10.89
2023-01-07T11:49:23.224Z,11.12
2023-01-07T11:51:50.141Z,11.12
2023-01-07T11:54:21.503Z,10.93
2023-01-07T11:56:48.552Z,11.04
2023-01-07T11:59:23.750Z,11.03
2023-01-07T12:01:59.593Z,11.02
2023-01-07T12:04:30.972Z,11.00
2023-01-07T12:07:00.220Z,10.98
2023-01-07T12:09:28.390Z,10.99
2023-01-07T12:11:56.925Z,11.03
2023-01-07T12:14:25.894Z,11.05
2023-01-07T12:16:53.983Z,11.05
2023-01-07T12:19:31.755Z,10.96
2023-01-07T12:21:58.545Z,10.96
2023-01-07T12:24:31.660Z,10.97
2023-01-07T12:27:17.660Z,10.99
2023-01-07T12:30:03.450Z,11.02
2023-01-07T12:32:36.679Z,11.02
2023-01-07T12:35:14.267Z,11.00
2023-01-07T12:37:57.531Z,10.99
2023-01-07T12:40:37.211Z,11.00
2023-01-07T12:43:22.841Z,11.00
2023-01-07T12:45:52.769Z,11.05
2023-01-07T12:48:27.386Z,11.08
2023-01-07T12:50:56.776Z,11.12
2023-01-07T12:53:23.490Z,11.10
2023-01-07T12:55:52.738Z,11.05
2023-01-07T12:58:22.534Z,11.03
2023-01-07T13:00:49.275Z,10.99
2023-01-07T13:03:19.405Z,11.03
2023-01-07T13:05:54.619Z,11.04
2023-01-07T13:08:39.837Z,11.01
2023-01-07T13:11:15.619Z,11.00
2023-01-07T13:13:45.371Z,11.02
2023-01-07T13:16:12.716Z,11.07
2023-01-07T13:18:39.714Z,11.14
2023-01-07T13:21:14.126Z,11.19
2023-01-07T13:23:59.625Z,11.23
2023-01-07T13:26:41.707Z,11.28
2023-01-07T13:29:08.494Z,11.34
2023-01-07T13:31:38.949Z,11.32
2023-01-07T13:34:12.787Z,11.34
2023-01-07T13:36:58.379Z,11.31
2023-01-07T13:39:45.472Z,11.28
2023-01-07T13:42:18.738Z,11.25
2023-01-07T13:44:48.608Z,11.22
2023-01-07T13:47:18.772Z,11.21
2023-01-07T13:49:56.482Z,11.21
2023-01-07T13:52:25.589Z,11.20
2023-01-07T13:54:53.552Z,11.25
2023-01-07T13:57:26.180Z,11.31
2023-01-07T13:59:54.035Z,11.37
2023-01-07T14:02:22.551Z,11.40
2023-01-07T14:05:09.790Z,11.41
2023-01-07T14:07:50.870Z,11.43
2023-01-07T14:10:31.327Z,11.46
2023-01-07T14:13:01.094Z,11.45
2023-01-07T14:15:37.969Z,11.51
2023-01-07T14:18:13.050Z,11.51
2023-01-07T14:20:45.889Z,11.50
2023-01-07T14:23:15.757Z,11.49
2023-01-07T14:25:51.490Z,11.51
2023-01-07T14:28:26.903Z,11.51
2023-01-07T14:30:54.719Z,11.53
2023-01-07T14:33:21.579Z,11.54
2023-01-07T14:35:54.682Z,11.50
2023-01-07T14:38:30.490Z,11.47
2023-01-07T14:41:08.490Z,11.47
2023-01-07T14:43:43.439Z,11.48
2023-01-07T14:46:22.419Z,11.83
2023-01-07T14:49:15.239Z,11.91
2023-01-07T14:51:56.411Z,11.83
2023-01-07T14:54:38.672Z,11.64
2023-01-07T14:57:24.211Z,11.52
2023-01-07T14:59:54.027Z,11.43
2023-01-07T15:02:39.091Z,11.35
2023-01-07T15:05:27.018Z,11.29
2023-01-07T15:08:18.531Z,11.23
2023-01-07T15:11:05.625Z,11.22
2023-01-07T15:13:54.922Z,11.19
2023-01-07T15:16:22.323Z,11.16
2023-01-07T15:18:53.820Z,11.11
2023-01-07T15:21:29.497Z,11.08
2023-01-07T15:24:24.334Z,11.07
2023-01-07T15:26:54.254Z,11.05
2023-01-07T15:29:39.726Z,11.03
2023-01-07T15:32:25.404Z,11.00
2023-01-07T15:34:52.255Z,11.00
2023-01-07T15:37:19.265Z,10.98
2023-01-07T15:39:49.745Z,10.96
2023-01-07T15:42:18.856Z,10.95
2023-01-07T15:44:48.378Z,10.94
2023-01-07T15:47:33.723Z,10.95
2023-01-07T15:50:18.966Z,10.94
2023-01-07T15:52:50.653Z,10.92
2023-01-07T15:55:28.083Z,10.90
2023-01-07T15:57:59.629Z,10.89
2023-01-07T16:00:26.631Z,10.86
2023-01-07T16:02:53.689Z,10.87
2023-01-07T16:05:20.597Z,10.86
2023-01-07T16:07:50.554Z,10.85
2023-01-07T16:10:21.840Z,10.84
2023-01-07T16:12:49.692Z,10.84
2023-01-07T16:15:24.124Z,10.81
2023-01-07T16:17:55.681Z,10.80
2023-01-07T16:20:29.543Z,10.81
2023-01-07T16:23:08.573Z,10.80
2023-01-07T16:26:05.084Z,10.80
2023-01-07T16:28:42.296Z,10.80
2023-01-07T16:31:10.641Z,10.80
2023-01-07T16:33:38.495Z,10.78
2023-01-07T16:36:06.951Z,10.77
2023-01-07T16:38:35.564Z,10.76
2023-01-07T16:41:02.991Z,10.74
2023-01-07T16:43:31.372Z,10.73
2023-01-07T16:46:09.093Z,10.72
2023-01-07T16:48:36.006Z,10.73
2023-01-07T16:51:03.060Z,10.72
2023-01-07T16:53:32.367Z,10.69
2023-01-07T16:56:01.819Z,10.68
2023-01-07T16:58:34.980Z,10.69
2023-01-07T17:01:02.654Z,10.67
2023-01-07T17:03:32.496Z,10.65
2023-01-07T17:06:04.589Z,10.65
2023-01-07T17:08:31.805Z,10.65
2023-01-07T17:11:00.943Z,10.64
2023-01-07T17:13:27.702Z,10.62
2023-01-07T17:16:14.407Z,10.61
2023-01-07T17:18:41.389Z,10.60
2023-01-07T17:21:28.014Z,10.58
2023-01-07T17:23:55.104Z,10.57
2023-01-07T17:26:23.455Z,10.57
2023-01-07T17:28:55.138Z,10.54
2023-01-07T17:31:23.640Z,10.53
2023-01-07T17:33:51.372Z,10.33
2023-01-07T17:36:19.361Z,10.50
2023-01-07T17:38:46.458Z,10.50
2023-01-07T17:41:34.506Z,10.49
2023-01-07T17:44:02.133Z,10.47
2023-01-07T17:46:30.317Z,10.46
2023-01-07T17:48:58.161Z,10.46
2023-01-07T17:51:26.148Z,10.45
2023-01-07T17:53:59.010Z,10.45
2023-01-07T17:56:26.005Z,10.44
2023-01-07T17:58:55.762Z,10.43
2023-01-07T18:01:23.447Z,10.41
2023-01-07T18:03:51.432Z,10.40
2023-01-07T18:06:18.457Z,10.40
2023-01-07T18:08:46.088Z,10.39
2023-01-07T18:11:33.098Z,10.39
2023-01-07T18:14:00.214Z,10.38
2023-01-07T18:16:27.494Z,10.36
2023-01-07T18:18:55.083Z,10.35
2023-01-07T18:21:21.953Z,10.35
2023-01-07T18:23:49.184Z,10.35
2023-01-07T18:26:16.614Z,10.32
2023-01-07T18:28:43.619Z,10.30
2023-01-07T18:31:10.802Z,10.26
2023-01-07T18:33:37.669Z,10.22
2023-01-07T18:36:04.918Z,10.21
2023-01-07T18:38:32.515Z,10.20
2023-01-07T18:40:59.320Z,10.20
2023-01-07T18:43:26.236Z,10.18
2023-01-07T18:45:53.063Z,10.17
2023-01-07T18:48:20.329Z,10.17
2023-01-07T18:50:48.489Z,10.18
2023-01-07T18:53:16.158Z,10.17
2023-01-07T18:55:43.443Z,10.18
2023-01-07T18:58:14.309Z,10.16
2023-01-07T19:00:41.869Z,10.15
2023-01-07T19:03:10.078Z,10.15
2023-01-07T19:05:38.945Z,10.15
2023-01-07T19:08:05.806Z,10.16
2023-01-07T19:10:32.559Z,10.15
2023-01-07T19:12:59.347Z,10.15
2023-01-07T19:15:26.140Z,10.13
2023-01-07T19:17:52.927Z,10.13
2023-01-07T19:20:19.820Z,10.09
2023-01-07T19:22:46.709Z,10.08
2023-01-07T19:25:13.649Z,10.09
2023-01-07T19:27:40.632Z,10.11
2023-01-07T19:30:08.352Z,10.10
2023-01-07T19:32:35.739Z,10.07
2023-01-07T19:35:02.815Z,10.05
2023-01-07T19:37:29.619Z,10.03
2023-01-07T19:39:56.420Z,10.01
2023-01-07T19:42:23.358Z,9.82
2023-01-07T19:44:50.114Z,9.97
2023-01-07T19:47:17.377Z,9.97
2023-01-07T19:49:45.458Z,9.95
2023-01-07T19:52:13.698Z,9.95
2023-01-07T19:54:41.269Z,9.93
2023-01-07T19:57:08.044Z,9.91
2023-01-07T19:59:35.179Z,9.91
2023-01-07T20:02:03.033Z,9.90
2023-01-07T20:04:31.101Z,9.88
2023-01-07T20:06:57.854Z,9.83
2023-01-07T20:09:24.643Z,9.80
2023-01-07T20:11:51.426Z,9.75
2023-01-07T20:14:18.311Z,9.75
2023-01-07T20:16:45.140Z,9.70
2023-01-07T20:19:12.793Z,9.63
2023-01-07T20:21:40.552Z,9.60
2023-01-07T20:24:07.613Z,9.57
2023-01-07T20:26:35.502Z,9.54
2023-01-07T20:29:02.432Z,9.54
2023-01-07T20:31:30.675Z,9.55
2023-01-07T20:33:58.292Z,9.56
2023-01-07T20:36:26.589Z,9.58
2023-01-07T20:38:53.660Z,9.58
2023-01-07T20:41:25.795Z,9.61
2023-01-07T20:43:53.607Z,9.62
2023-01-07T20:46:20.839Z,9.63
2023-01-07T20:48:48.791Z,9.65
2023-01-07T20:51:15.908Z,9.66
2023-01-07T20:53:42.977Z,9.67
2023-01-07T20:56:10.120Z,9.68
2023-01-07T20:58:37.625Z,9.69
2023-01-07T21:01:05.643Z,9.72
2023-01-07T21:03:32.748Z,9.74
2023-01-07T21:05:59.535Z,9.75
2023-01-07T21:08:26.841Z,9.77
2023-01-07T21:10:54.062Z,9.79
2023-01-07T21:13:21.764Z,9.82
2023-01-07T21:15:48.936Z,9.83
2023-01-07T21:18:16.064Z,9.83
2023-01-07T21:20:43.385Z,9.81
2023-01-07T21:23:10.760Z,9.81
2023-01-07T21:25:37.899Z,9.81
2023-01-07T21:28:06.853Z,9.80
2023-01-07T21:30:33.729Z,9.78
2023-01-07T21:33:00.634Z,9.77
2023-01-07T21:35:27.599Z,9.78
2023-01-07T21:37:55.136Z,9.77
2023-01-07T21:40:22.267Z,9.77
2023-01-07T21:42:49.112Z,9.75
2023-01-07T21:45:15.948Z,9.77
2023-01-07T21:47:42.872Z,9.77
2023-01-07T21:50:09.654Z,9.78
2023-01-07T21:52:36.578Z,9.77
2023-01-07T21:55:04.306Z,9.78
2023-01-07T21:57:31.316Z,9.78
2023-01-07T21:59:58.105Z,9.76
2023-01-07T22:02:24.905Z,9.75
2023-01-07T22:04:51.752Z,9.75
2023-01-07T22:07:19.507Z,9.75
2023-01-07T22:09:46.472Z,9.75
2023-01-07T22:12:14.404Z,9.75
2023-01-07T22:14:41.641Z,9.75
2023-01-07T22:17:09.889Z,9.73
2023-01-07T22:19:36.623Z,9.74
2023-01-07T22:22:03.612Z,9.76
2023-01-07T22:24:30.561Z,9.75
2023-01-07T22:26:57.499Z,9.75
2023-01-07T22:29:24.290Z,9.73
2023-01-07T22:31:52.962Z,9.73
2023-01-07T22:34:19.930Z,9.73
2023-01-07T22:36:51.031Z,9.70
2023-01-07T22:39:28.199Z,9.70
2023-01-07T22:41:56.584Z,9.70
2023-01-07T22:44:29.431Z,9.71
2023-01-07T22:46:56.727Z,9.69
2023-01-07T22:49:25.481Z,9.68
2023-01-07T22:51:52.472Z,9.67
2023-01-07T22:54:19.432Z,9.67
2023-01-07T22:56:46.395Z,9.67
2023-01-07T22:59:13.139Z,9.66
2023-01-07T23:01:40.270Z,9.65
2023-01-07T23:04:07.738Z,9.65
2023-01-07T23:06:35.936Z,9.64
2023-01-07T23:09:02.792Z,9.64
2023-01-07T23:11:49.475Z,9.65
2023-01-07T23:14:17.846Z,9.66
2023-01-07T23:16:44.626Z,9.65
2023-01-07T23:19:12.149Z,9.64
2023-01-07T23:21:40.120Z,9.64
2023-01-07T23:24:06.969Z,9.65
2023-01-07T23:26:33.821Z,9.65
2023-01-07T23:29:00.644Z,9.67
2023-01-07T23:31:27.607Z,9.66
2023-01-07T23:33:54.463Z,9.65
2023-01-07T23:36:21.332Z,9.66
2023-01-07T23:38:48.181Z,9.64
2023-01-07T23:41:14.910Z,9.65
2023-01-07T23:43:41.778Z,9.63
2023-01-07T23:46:08.551Z,9.62
2023-01-07T23:48:36.383Z,9.62
2023-01-07T23:51:05.091Z,9.62
2023-01-07T23:53:31.970Z,9.61
2023-01-07T23:55:58.722Z,9.60
2023-01-07T23:58:25.978Z,9.52
